sensor_id;sensor_type;location;lat;lon;timestamp;P1;P2;P0
77699;PMS5003;66867;42.658;23.320;2023-05-20T00:00:00;31;28;
77699;PMS5003;66867;42.658;23.320;2023-05-20T00:01:00;35;33;
77699;PMS5003;66867;42.658;23.320;2023-05-20T00:02:00;32;30;
77699;PMS5003;66867;42.658;23.320;2023-05-20T00:03:00;28;27;
77699;PMS5003;66867;42.658;23.320;2023-05-20T00:04:00;30;29;
77699;PMS5003;66867;42.658;23.320;2023-05-20T00:05:00;31;31;
77699;PMS5003;66867;42.658;23.320;2023-05-20T00:06:00;32;30;
77699;PMS5003;66867;42.658;23.320;2023-05-20T00:07:00;30;29;
77699;PMS5003;66867;42.658;23.320;2023-05-20T00:08:00;30;28;
77699;PMS5003;66867;42.658;23.320;2023-05-20T00:09:00;30;29;
77699;PMS5003;66867;42.658;23.320;2023-05-20T00:10:00;24;24;
77699;PMS5003;66867;42.658;23.320;2023-05-20T00:11:00;26;26;
77699;PMS5003;66867;42.658;23.320;2023-05-20T00:12:00;28;28;
77699;PMS5003;66867;42.658;23.320;2023-05-20T00:13:00;30;30;
77699;PMS5003;66867;42.658;23.320;2023-05-20T00:14:00;28;26;
77699;PMS5003;66867;42.658;23.320;2023-05-20T00:15:00;30;29;
77699;PMS5003;66867;42.658;23.320;2023-05-20T00:16:00;28;28;
77699;PMS5003;66867;42.658;23.320;2023-05-20T00:17:00;29;27;
77699;PMS5003;66867;42.658;23.320;2023-05-20T00:18:01;24;24;
77699;PMS5003;66867;42.658;23.320;2023-05-20T00:19:00;27;26;
77699;PMS5003;66867;42.658;23.320;2023-05-20T00:20:00;29;29;
77699;PMS5003;66867;42.658;23.320;2023-05-20T00:21:00;33;30;
77699;PMS5003;66867;42.658;23.320;2023-05-20T00:22:00;33;30;
77699;PMS5003;66867;42.658;23.320;2023-05-20T00:23:00;31;31;
77699;PMS5003;66867;42.658;23.320;2023-05-20T00:24:00;29;29;
77699;PMS5003;66867;42.658;23.320;2023-05-20T00:25:00;31;30;
77699;PMS5003;66867;42.658;23.320;2023-05-20T00:26:00;26;26;
77699;PMS5003;66867;42.658;23.320;2023-05-20T00:27:00;30;30;
77699;PMS5003;66867;42.658;23.320;2023-05-20T00:28:00;29;28;
77699;PMS5003;66867;42.658;23.320;2023-05-20T00:29:00;31;31;
77699;PMS5003;66867;42.658;23.320;2023-05-20T00:30:01;32;31;
77699;PMS5003;66867;42.658;23.320;2023-05-20T00:31:00;30;30;
77699;PMS5003;66867;42.658;23.320;2023-05-20T00:32:00;29;28;
77699;PMS5003;66867;42.658;23.320;2023-05-20T00:33:00;29;28;
77699;PMS5003;66867;42.658;23.320;2023-05-20T00:34:00;30;29;
77699;PMS5003;66867;42.658;23.320;2023-05-20T00:35:03;37;35;
77699;PMS5003;66867;42.658;23.320;2023-05-20T00:36:00;31;30;
77699;PMS5003;66867;42.658;23.320;2023-05-20T00:37:00;29;29;
77699;PMS5003;66867;42.658;23.320;2023-05-20T00:38:00;30;30;
77699;PMS5003;66867;42.658;23.320;2023-05-20T00:39:00;30;30;
77699;PMS5003;66867;42.658;23.320;2023-05-20T00:40:00;33;31;
77699;PMS5003;66867;42.658;23.320;2023-05-20T00:41:00;37;34;
77699;PMS5003;66867;42.658;23.320;2023-05-20T00:42:00;32;31;
77699;PMS5003;66867;42.658;23.320;2023-05-20T00:43:00;31;31;
77699;PMS5003;66867;42.658;23.320;2023-05-20T00:44:00;34;32;
77699;PMS5003;66867;42.658;23.320;2023-05-20T00:45:00;34;32;
77699;PMS5003;66867;42.658;23.320;2023-05-20T00:46:00;35;31;
77699;PMS5003;66867;42.658;23.320;2023-05-20T00:47:00;33;31;
77699;PMS5003;66867;42.658;23.320;2023-05-20T00:48:01;41;34;
77699;PMS5003;66867;42.658;23.320;2023-05-20T00:49:00;36;33;
77699;PMS5003;66867;42.658;23.320;2023-05-20T00:50:01;35;33;
77699;PMS5003;66867;42.658;23.320;2023-05-20T00:51:00;28;28;
77699;PMS5003;66867;42.658;23.320;2023-05-20T00:52:00;31;29;
77699;PMS5003;66867;42.658;23.320;2023-05-20T00:53:00;28;28;
77699;PMS5003;66867;42.658;23.320;2023-05-20T00:54:00;31;28;
77699;PMS5003;66867;42.658;23.320;2023-05-20T00:55:00;30;29;
77699;PMS5003;66867;42.658;23.320;2023-05-20T00:56:00;34;31;
77699;PMS5003;66867;42.658;23.320;2023-05-20T00:57:02;32;29;
77699;PMS5003;66867;42.658;23.320;2023-05-20T00:58:00;29;29;
77699;PMS5003;66867;42.658;23.320;2023-05-20T00:59:01;29;29;
77699;PMS5003;66867;42.658;23.320;2023-05-20T01:00:00;31;31;
77699;PMS5003;66867;42.658;23.320;2023-05-20T01:01:00;31;31;
77699;PMS5003;66867;42.658;23.320;2023-05-20T01:02:01;30;30;
77699;PMS5003;66867;42.658;23.320;2023-05-20T01:03:00;31;30;
77699;PMS5003;66867;42.658;23.320;2023-05-20T01:04:01;27;27;
77699;PMS5003;66867;42.658;23.320;2023-05-20T01:05:00;29;29;
77699;PMS5003;66867;42.658;23.320;2023-05-20T01:06:01;27;27;
77699;PMS5003;66867;42.658;23.320;2023-05-20T01:07:02;30;30;
77699;PMS5003;66867;42.658;23.320;2023-05-20T01:08:00;29;28;
77699;PMS5003;66867;42.658;23.320;2023-05-20T01:09:00;29;28;
77699;PMS5003;66867;42.658;23.320;2023-05-20T01:10:00;33;32;
77699;PMS5003;66867;42.658;23.320;2023-05-20T01:11:05;31;31;
77699;PMS5003;66867;42.658;23.320;2023-05-20T01:12:08;37;31;
77699;PMS5003;66867;42.658;23.320;2023-05-20T01:13:04;28;27;
77699;PMS5003;66867;42.658;23.320;2023-05-20T01:14:02;36;31;
77699;PMS5003;66867;42.658;23.320;2023-05-20T01:15:04;34;33;
77699;PMS5003;66867;42.658;23.320;2023-05-20T01:16:02;30;29;
77699;PMS5003;66867;42.658;23.320;2023-05-20T01:17:01;34;33;
77699;PMS5003;66867;42.658;23.320;2023-05-20T01:18:01;27;26;
77699;PMS5003;66867;42.658;23.320;2023-05-20T01:19:01;31;29;
77699;PMS5003;66867;42.658;23.320;2023-05-20T01:20:00;28;28;
77699;PMS5003;66867;42.658;23.320;2023-05-20T01:21:01;42;37;
77699;PMS5003;66867;42.658;23.320;2023-05-20T01:22:05;52;43;
77699;PMS5003;66867;42.658;23.320;2023-05-20T01:23:00;46;39;
77699;PMS5003;66867;42.658;23.320;2023-05-20T01:24:00;34;33;
77699;PMS5003;66867;42.658;23.320;2023-05-20T01:25:00;38;35;
77699;PMS5003;66867;42.658;23.320;2023-05-20T01:26:00;44;37;
77699;PMS5003;66867;42.658;23.320;2023-05-20T01:27:00;43;38;
77699;PMS5003;66867;42.658;23.320;2023-05-20T01:28:00;44;39;
77699;PMS5003;66867;42.658;23.320;2023-05-20T01:29:00;50;41;
77699;PMS5003;66867;42.658;23.320;2023-05-20T01:30:00;49;41;
77699;PMS5003;66867;42.658;23.320;2023-05-20T01:31:02;65;52;
77699;PMS5003;66867;42.658;23.320;2023-05-20T01:32:00;40;37;
77699;PMS5003;66867;42.658;23.320;2023-05-20T01:33:04;36;34;
77699;PMS5003;66867;42.658;23.320;2023-05-20T01:34:01;33;32;
77699;PMS5003;66867;42.658;23.320;2023-05-20T01:35:00;37;34;
77699;PMS5003;66867;42.658;23.320;2023-05-20T01:36:01;41;36;
77699;PMS5003;66867;42.658;23.320;2023-05-20T01:37:02;37;34;
77699;PMS5003;66867;42.658;23.320;2023-05-20T01:38:01;37;34;
77699;PMS5003;66867;42.658;23.320;2023-05-20T01:39:01;33;32;
77699;PMS5003;66867;42.658;23.320;2023-05-20T01:40:01;36;33;
77699;PMS5003;66867;42.658;23.320;2023-05-20T01:41:01;36;33;
77699;PMS5003;66867;42.658;23.320;2023-05-20T01:42:01;32;29;
77699;PMS5003;66867;42.658;23.320;2023-05-20T01:43:01;33;32;
77699;PMS5003;66867;42.658;23.320;2023-05-20T01:44:00;33;29;
77699;PMS5003;66867;42.658;23.320;2023-05-20T01:45:01;30;29;
77699;PMS5003;66867;42.658;23.320;2023-05-20T01:46:00;32;32;
77699;PMS5003;66867;42.658;23.320;2023-05-20T01:47:00;28;28;
77699;PMS5003;66867;42.658;23.320;2023-05-20T01:48:01;30;30;
77699;PMS5003;66867;42.658;23.320;2023-05-20T01:49:00;27;26;
77699;PMS5003;66867;42.658;23.320;2023-05-20T01:50:00;30;27;
77699;PMS5003;66867;42.658;23.320;2023-05-20T01:51:00;28;27;
77699;PMS5003;66867;42.658;23.320;2023-05-20T01:52:00;29;28;
77699;PMS5003;66867;42.658;23.320;2023-05-20T01:53:00;35;34;
77699;PMS5003;66867;42.658;23.320;2023-05-20T01:54:00;35;34;
77699;PMS5003;66867;42.658;23.320;2023-05-20T01:55:00;29;29;
77699;PMS5003;66867;42.658;23.320;2023-05-20T01:56:00;34;31;
77699;PMS5003;66867;42.658;23.320;2023-05-20T01:57:00;35;33;
77699;PMS5003;66867;42.658;23.320;2023-05-20T01:58:01;34;32;
77699;PMS5003;66867;42.658;23.320;2023-05-20T01:59:00;32;32;
77699;PMS5003;66867;42.658;23.320;2023-05-20T02:00:01;36;34;
77699;PMS5003;66867;42.658;23.320;2023-05-20T02:01:00;30;29;
77699;PMS5003;66867;42.658;23.320;2023-05-20T02:02:00;34;32;
77699;PMS5003;66867;42.658;23.320;2023-05-20T02:03:00;35;32;
77699;PMS5003;66867;42.658;23.320;2023-05-20T02:04:00;33;31;
77699;PMS5003;66867;42.658;23.320;2023-05-20T02:05:00;31;31;
77699;PMS5003;66867;42.658;23.320;2023-05-20T02:06:00;33;32;
77699;PMS5003;66867;42.658;23.320;2023-05-20T02:07:00;37;34;
77699;PMS5003;66867;42.658;23.320;2023-05-20T02:08:00;30;29;
77699;PMS5003;66867;42.658;23.320;2023-05-20T02:09:00;39;34;
77699;PMS5003;66867;42.658;23.320;2023-05-20T02:10:00;38;34;
77699;PMS5003;66867;42.658;23.320;2023-05-20T02:11:00;34;32;
77699;PMS5003;66867;42.658;23.320;2023-05-20T02:12:00;36;34;
77699;PMS5003;66867;42.658;23.320;2023-05-20T02:13:00;36;34;
77699;PMS5003;66867;42.658;23.320;2023-05-20T02:14:00;39;35;
77699;PMS5003;66867;42.658;23.320;2023-05-20T02:15:00;42;36;
77699;PMS5003;66867;42.658;23.320;2023-05-20T02:16:00;40;37;
77699;PMS5003;66867;42.658;23.320;2023-05-20T02:17:00;41;36;
77699;PMS5003;66867;42.658;23.320;2023-05-20T02:18:00;42;37;
77699;PMS5003;66867;42.658;23.320;2023-05-20T02:19:00;35;33;
77699;PMS5003;66867;42.658;23.320;2023-05-20T02:20:00;37;35;
77699;PMS5003;66867;42.658;23.320;2023-05-20T02:21:01;35;33;
77699;PMS5003;66867;42.658;23.320;2023-05-20T02:22:00;35;32;
77699;PMS5003;66867;42.658;23.320;2023-05-20T02:23:00;34;32;
77699;PMS5003;66867;42.658;23.320;2023-05-20T02:24:00;32;32;
77699;PMS5003;66867;42.658;23.320;2023-05-20T02:25:00;34;32;
77699;PMS5003;66867;42.658;23.320;2023-05-20T02:26:01;27;27;
77699;PMS5003;66867;42.658;23.320;2023-05-20T02:27:00;35;32;
77699;PMS5003;66867;42.658;23.320;2023-05-20T02:28:01;29;29;
77699;PMS5003;66867;42.658;23.320;2023-05-20T02:29:00;36;34;
77699;PMS5003;66867;42.658;23.320;2023-05-20T02:30:00;30;30;
77699;PMS5003;66867;42.658;23.320;2023-05-20T02:31:00;36;33;
77699;PMS5003;66867;42.658;23.320;2023-05-20T02:32:00;36;33;
77699;PMS5003;66867;42.658;23.320;2023-05-20T02:33:00;28;28;
77699;PMS5003;66867;42.658;23.320;2023-05-20T02:34:00;29;25;
77699;PMS5003;66867;42.658;23.320;2023-05-20T02:35:00;30;30;
77699;PMS5003;66867;42.658;23.320;2023-05-20T02:36:00;30;30;
77699;PMS5003;66867;42.658;23.320;2023-05-20T02:37:00;30;30;
77699;PMS5003;66867;42.658;23.320;2023-05-20T02:38:00;26;26;
77699;PMS5003;66867;42.658;23.320;2023-05-20T02:39:00;33;31;
77699;PMS5003;66867;42.658;23.320;2023-05-20T02:40:00;29;27;
77699;PMS5003;66867;42.658;23.320;2023-05-20T02:41:00;30;30;
77699;PMS5003;66867;42.658;23.320;2023-05-20T02:42:00;31;29;
77699;PMS5003;66867;42.658;23.320;2023-05-20T02:43:00;29;26;
77699;PMS5003;66867;42.658;23.320;2023-05-20T02:44:00;29;28;
77699;PMS5003;66867;42.658;23.320;2023-05-20T02:45:00;28;28;
77699;PMS5003;66867;42.658;23.320;2023-05-20T02:46:01;31;30;
77699;PMS5003;66867;42.658;23.320;2023-05-20T02:47:00;33;32;
77699;PMS5003;66867;42.658;23.320;2023-05-20T02:48:00;31;30;
77699;PMS5003;66867;42.658;23.320;2023-05-20T02:49:00;34;32;
77699;PMS5003;66867;42.658;23.320;2023-05-20T02:50:00;33;32;
77699;PMS5003;66867;42.658;23.320;2023-05-20T02:51:00;26;26;
77699;PMS5003;66867;42.658;23.320;2023-05-20T02:52:00;34;32;
77699;PMS5003;66867;42.658;23.320;2023-05-20T02:53:00;30;30;
77699;PMS5003;66867;42.658;23.320;2023-05-20T02:54:00;29;28;
77699;PMS5003;66867;42.658;23.320;2023-05-20T02:55:00;32;30;
77699;PMS5003;66867;42.658;23.320;2023-05-20T02:56:00;31;30;
77699;PMS5003;66867;42.658;23.320;2023-05-20T02:57:00;27;27;
77699;PMS5003;66867;42.658;23.320;2023-05-20T02:58:00;31;31;
77699;PMS5003;66867;42.658;23.320;2023-05-20T02:59:00;33;32;
77699;PMS5003;66867;42.658;23.320;2023-05-20T03:00:00;33;32;
77699;PMS5003;66867;42.658;23.320;2023-05-20T03:01:01;27;26;
77699;PMS5003;66867;42.658;23.320;2023-05-20T03:02:00;27;26;
77699;PMS5003;66867;42.658;23.320;2023-05-20T03:03:00;31;29;
77699;PMS5003;66867;42.658;23.320;2023-05-20T03:04:02;30;30;
77699;PMS5003;66867;42.658;23.320;2023-05-20T03:05:00;27;27;
77699;PMS5003;66867;42.658;23.320;2023-05-20T03:06:00;26;26;
77699;PMS5003;66867;42.658;23.320;2023-05-20T03:07:00;29;28;
77699;PMS5003;66867;42.658;23.320;2023-05-20T03:08:00;29;29;
77699;PMS5003;66867;42.658;23.320;2023-05-20T03:09:00;27;27;
77699;PMS5003;66867;42.658;23.320;2023-05-20T03:10:00;28;27;
77699;PMS5003;66867;42.658;23.320;2023-05-20T03:11:00;28;27;
77699;PMS5003;66867;42.658;23.320;2023-05-20T03:12:00;32;32;
77699;PMS5003;66867;42.658;23.320;2023-05-20T03:13:00;32;31;
77699;PMS5003;66867;42.658;23.320;2023-05-20T03:14:00;31;30;
77699;PMS5003;66867;42.658;23.320;2023-05-20T03:15:00;27;26;
77699;PMS5003;66867;42.658;23.320;2023-05-20T03:16:00;28;27;
77699;PMS5003;66867;42.658;23.320;2023-05-20T03:17:00;27;27;
77699;PMS5003;66867;42.658;23.320;2023-05-20T03:18:00;30;28;
77699;PMS5003;66867;42.658;23.320;2023-05-20T03:19:00;34;32;
77699;PMS5003;66867;42.658;23.320;2023-05-20T03:20:00;35;31;
77699;PMS5003;66867;42.658;23.320;2023-05-20T03:21:00;32;31;
77699;PMS5003;66867;42.658;23.320;2023-05-20T03:22:00;29;29;
77699;PMS5003;66867;42.658;23.320;2023-05-20T03:23:00;33;32;
77699;PMS5003;66867;42.658;23.320;2023-05-20T03:24:00;31;29;
77699;PMS5003;66867;42.658;23.320;2023-05-20T03:25:00;30;29;
77699;PMS5003;66867;42.658;23.320;2023-05-20T03:26:00;30;30;
77699;PMS5003;66867;42.658;23.320;2023-05-20T03:27:00;38;33;
77699;PMS5003;66867;42.658;23.320;2023-05-20T03:28:00;36;34;
77699;PMS5003;66867;42.658;23.320;2023-05-20T03:29:00;38;34;
77699;PMS5003;66867;42.658;23.320;2023-05-20T03:30:00;43;38;
77699;PMS5003;66867;42.658;23.320;2023-05-20T03:31:00;40;35;
77699;PMS5003;66867;42.658;23.320;2023-05-20T03:32:00;35;33;
77699;PMS5003;66867;42.658;23.320;2023-05-20T03:33:00;38;34;
77699;PMS5003;66867;42.658;23.320;2023-05-20T03:34:00;35;33;
77699;PMS5003;66867;42.658;23.320;2023-05-20T03:35:00;38;34;
77699;PMS5003;66867;42.658;23.320;2023-05-20T03:36:00;36;34;
77699;PMS5003;66867;42.658;23.320;2023-05-20T03:37:00;38;35;
77699;PMS5003;66867;42.658;23.320;2023-05-20T03:38:00;36;34;
77699;PMS5003;66867;42.658;23.320;2023-05-20T03:39:00;40;36;
77699;PMS5003;66867;42.658;23.320;2023-05-20T03:40:00;42;37;
77699;PMS5003;66867;42.658;23.320;2023-05-20T03:41:00;40;35;
77699;PMS5003;66867;42.658;23.320;2023-05-20T03:42:00;33;32;
77699;PMS5003;66867;42.658;23.320;2023-05-20T03:43:00;33;32;
77699;PMS5003;66867;42.658;23.320;2023-05-20T03:44:00;40;36;
77699;PMS5003;66867;42.658;23.320;2023-05-20T03:45:00;36;34;
77699;PMS5003;66867;42.658;23.320;2023-05-20T03:46:00;33;32;
77699;PMS5003;66867;42.658;23.320;2023-05-20T03:47:00;36;32;
77699;PMS5003;66867;42.658;23.320;2023-05-20T03:48:00;34;32;
77699;PMS5003;66867;42.658;23.320;2023-05-20T03:49:00;35;33;
77699;PMS5003;66867;42.658;23.320;2023-05-20T03:50:00;40;36;
77699;PMS5003;66867;42.658;23.320;2023-05-20T03:51:00;37;35;
77699;PMS5003;66867;42.658;23.320;2023-05-20T03:52:00;33;32;
77699;PMS5003;66867;42.658;23.320;2023-05-20T03:53:00;32;31;
77699;PMS5003;66867;42.658;23.320;2023-05-20T03:54:00;34;33;
77699;PMS5003;66867;42.658;23.320;2023-05-20T03:55:00;41;35;
77699;PMS5003;66867;42.658;23.320;2023-05-20T03:56:00;42;36;
77699;PMS5003;66867;42.658;23.320;2023-05-20T03:57:00;36;35;
77699;PMS5003;66867;42.658;23.320;2023-05-20T03:58:00;31;30;
77699;PMS5003;66867;42.658;23.320;2023-05-20T03:59:00;33;32;
77699;PMS5003;66867;42.658;23.320;2023-05-20T04:00:00;35;33;
77699;PMS5003;66867;42.658;23.320;2023-05-20T04:01:00;39;36;
77699;PMS5003;66867;42.658;23.320;2023-05-20T04:02:00;35;32;
77699;PMS5003;66867;42.658;23.320;2023-05-20T04:03:00;35;33;
77699;PMS5003;66867;42.658;23.320;2023-05-20T04:04:00;33;31;
77699;PMS5003;66867;42.658;23.320;2023-05-20T04:05:00;35;33;
77699;PMS5003;66867;42.658;23.320;2023-05-20T04:06:00;37;34;
77699;PMS5003;66867;42.658;23.320;2023-05-20T04:07:00;35;32;
77699;PMS5003;66867;42.658;23.320;2023-05-20T04:08:00;31;31;
77699;PMS5003;66867;42.658;23.320;2023-05-20T04:09:00;37;34;
77699;PMS5003;66867;42.658;23.320;2023-05-20T04:10:00;35;32;
77699;PMS5003;66867;42.658;23.320;2023-05-20T04:11:00;35;33;
77699;PMS5003;66867;42.658;23.320;2023-05-20T04:12:00;35;32;
77699;PMS5003;66867;42.658;23.320;2023-05-20T04:13:00;35;34;
77699;PMS5003;66867;42.658;23.320;2023-05-20T04:14:00;33;32;
77699;PMS5003;66867;42.658;23.320;2023-05-20T04:15:01;34;32;
77699;PMS5003;66867;42.658;23.320;2023-05-20T04:16:00;36;34;
77699;PMS5003;66867;42.658;23.320;2023-05-20T04:17:02;32;31;
77699;PMS5003;66867;42.658;23.320;2023-05-20T04:18:00;39;34;
77699;PMS5003;66867;42.658;23.320;2023-05-20T04:19:00;39;35;
77699;PMS5003;66867;42.658;23.320;2023-05-20T04:20:00;36;34;
77699;PMS5003;66867;42.658;23.320;2023-05-20T04:21:00;37;33;
77699;PMS5003;66867;42.658;23.320;2023-05-20T04:22:00;38;34;
77699;PMS5003;66867;42.658;23.320;2023-05-20T04:23:00;40;36;
77699;PMS5003;66867;42.658;23.320;2023-05-20T04:24:00;34;33;
77699;PMS5003;66867;42.658;23.320;2023-05-20T04:25:00;32;32;
77699;PMS5003;66867;42.658;23.320;2023-05-20T04:26:00;39;35;
77699;PMS5003;66867;42.658;23.320;2023-05-20T04:27:00;33;32;
77699;PMS5003;66867;42.658;23.320;2023-05-20T04:28:00;37;35;
77699;PMS5003;66867;42.658;23.320;2023-05-20T04:29:01;37;35;
77699;PMS5003;66867;42.658;23.320;2023-05-20T04:30:00;38;35;
77699;PMS5003;66867;42.658;23.320;2023-05-20T04:31:00;44;39;
77699;PMS5003;66867;42.658;23.320;2023-05-20T04:32:00;37;34;
77699;PMS5003;66867;42.658;23.320;2023-05-20T04:33:00;36;34;
77699;PMS5003;66867;42.658;23.320;2023-05-20T04:34:00;33;31;
77699;PMS5003;66867;42.658;23.320;2023-05-20T04:35:00;40;36;
77699;PMS5003;66867;42.658;23.320;2023-05-20T04:36:00;39;35;
77699;PMS5003;66867;42.658;23.320;2023-05-20T04:37:00;37;33;
77699;PMS5003;66867;42.658;23.320;2023-05-20T04:38:00;36;34;
77699;PMS5003;66867;42.658;23.320;2023-05-20T04:39:00;38;35;
77699;PMS5003;66867;42.658;23.320;2023-05-20T04:40:00;37;32;
77699;PMS5003;66867;42.658;23.320;2023-05-20T04:41:01;37;34;
77699;PMS5003;66867;42.658;23.320;2023-05-20T04:42:01;42;36;
77699;PMS5003;66867;42.658;23.320;2023-05-20T04:43:00;36;33;
77699;PMS5003;66867;42.658;23.320;2023-05-20T04:44:00;37;33;
77699;PMS5003;66867;42.658;23.320;2023-05-20T04:45:00;37;33;
77699;PMS5003;66867;42.658;23.320;2023-05-20T04:46:00;43;38;
77699;PMS5003;66867;42.658;23.320;2023-05-20T04:47:00;35;32;
77699;PMS5003;66867;42.658;23.320;2023-05-20T04:48:00;47;37;
77699;PMS5003;66867;42.658;23.320;2023-05-20T04:49:00;36;33;
77699;PMS5003;66867;42.658;23.320;2023-05-20T04:50:00;35;33;
77699;PMS5003;66867;42.658;23.320;2023-05-20T04:51:00;39;34;
77699;PMS5003;66867;42.658;23.320;2023-05-20T04:52:00;41;36;
77699;PMS5003;66867;42.658;23.320;2023-05-20T04:53:00;41;37;
77699;PMS5003;66867;42.658;23.320;2023-05-20T04:54:00;42;37;
77699;PMS5003;66867;42.658;23.320;2023-05-20T04:55:00;46;39;
77699;PMS5003;66867;42.658;23.320;2023-05-20T04:56:00;42;35;
77699;PMS5003;66867;42.658;23.320;2023-05-20T04:57:00;42;36;
77699;PMS5003;66867;42.658;23.320;2023-05-20T04:58:00;49;40;
77699;PMS5003;66867;42.658;23.320;2023-05-20T04:59:00;49;41;
77699;PMS5003;66867;42.658;23.320;2023-05-20T05:00:00;44;38;
77699;PMS5003;66867;42.658;23.320;2023-05-20T05:01:00;47;37;
77699;PMS5003;66867;42.658;23.320;2023-05-20T05:02:00;47;38;
77699;PMS5003;66867;42.658;23.320;2023-05-20T05:03:00;44;37;
77699;PMS5003;66867;42.658;23.320;2023-05-20T05:04:00;49;40;
77699;PMS5003;66867;42.658;23.320;2023-05-20T05:05:00;49;40;
77699;PMS5003;66867;42.658;23.320;2023-05-20T05:06:00;46;39;
77699;PMS5003;66867;42.658;23.320;2023-05-20T05:07:00;44;37;
77699;PMS5003;66867;42.658;23.320;2023-05-20T05:08:00;41;36;
77699;PMS5003;66867;42.658;23.320;2023-05-20T05:09:00;42;37;
77699;PMS5003;66867;42.658;23.320;2023-05-20T05:10:00;46;39;
77699;PMS5003;66867;42.658;23.320;2023-05-20T05:11:00;43;37;
77699;PMS5003;66867;42.658;23.320;2023-05-20T05:12:00;48;41;
77699;PMS5003;66867;42.658;23.320;2023-05-20T05:13:00;46;39;
77699;PMS5003;66867;42.658;23.320;2023-05-20T05:14:00;46;40;
77699;PMS5003;66867;42.658;23.320;2023-05-20T05:15:00;51;42;
77699;PMS5003;66867;42.658;23.320;2023-05-20T05:16:01;48;41;
77699;PMS5003;66867;42.658;23.320;2023-05-20T05:17:00;48;40;
77699;PMS5003;66867;42.658;23.320;2023-05-20T05:18:00;48;39;
77699;PMS5003;66867;42.658;23.320;2023-05-20T05:19:00;46;38;
77699;PMS5003;66867;42.658;23.320;2023-05-20T05:20:00;46;39;
77699;PMS5003;66867;42.658;23.320;2023-05-20T05:21:01;46;40;
77699;PMS5003;66867;42.658;23.320;2023-05-20T05:22:00;42;36;
77699;PMS5003;66867;42.658;23.320;2023-05-20T05:23:00;45;39;
77699;PMS5003;66867;42.658;23.320;2023-05-20T05:24:00;42;37;
77699;PMS5003;66867;42.658;23.320;2023-05-20T05:25:00;45;37;
77699;PMS5003;66867;42.658;23.320;2023-05-20T05:26:00;41;36;
77699;PMS5003;66867;42.658;23.320;2023-05-20T05:27:00;44;37;
77699;PMS5003;66867;42.658;23.320;2023-05-20T05:28:00;37;33;
77699;PMS5003;66867;42.658;23.320;2023-05-20T05:29:00;43;37;
77699;PMS5003;66867;42.658;23.320;2023-05-20T05:30:00;43;38;
77699;PMS5003;66867;42.658;23.320;2023-05-20T05:31:00;35;32;
77699;PMS5003;66867;42.658;23.320;2023-05-20T05:32:00;38;34;
77699;PMS5003;66867;42.658;23.320;2023-05-20T05:33:00;40;35;
77699;PMS5003;66867;42.658;23.320;2023-05-20T05:34:00;42;35;
77699;PMS5003;66867;42.658;23.320;2023-05-20T05:35:00;42;35;
77699;PMS5003;66867;42.658;23.320;2023-05-20T05:36:00;37;33;
77699;PMS5003;66867;42.658;23.320;2023-05-20T05:37:00;32;30;
77699;PMS5003;66867;42.658;23.320;2023-05-20T05:38:00;39;34;
77699;PMS5003;66867;42.658;23.320;2023-05-20T05:39:00;35;33;
77699;PMS5003;66867;42.658;23.320;2023-05-20T05:40:00;35;32;
77699;PMS5003;66867;42.658;23.320;2023-05-20T05:41:00;35;32;
77699;PMS5003;66867;42.658;23.320;2023-05-20T05:42:00;41;35;
77699;PMS5003;66867;42.658;23.320;2023-05-20T05:43:00;38;35;
77699;PMS5003;66867;42.658;23.320;2023-05-20T05:44:00;36;33;
77699;PMS5003;66867;42.658;23.320;2023-05-20T05:45:01;45;39;
77699;PMS5003;66867;42.658;23.320;2023-05-20T05:46:00;47;41;
77699;PMS5003;66867;42.658;23.320;2023-05-20T05:47:00;34;32;
77699;PMS5003;66867;42.658;23.320;2023-05-20T05:48:00;28;28;
77699;PMS5003;66867;42.658;23.320;2023-05-20T05:49:00;30;29;
77699;PMS5003;66867;42.658;23.320;2023-05-20T05:50:00;32;31;
77699;PMS5003;66867;42.658;23.320;2023-05-20T05:51:00;33;32;
77699;PMS5003;66867;42.658;23.320;2023-05-20T05:52:00;30;29;
77699;PMS5003;66867;42.658;23.320;2023-05-20T05:53:00;32;31;
77699;PMS5003;66867;42.658;23.320;2023-05-20T05:54:00;38;33;
77699;PMS5003;66867;42.658;23.320;2023-05-20T05:55:01;36;33;
77699;PMS5003;66867;42.658;23.320;2023-05-20T05:56:00;29;29;
77699;PMS5003;66867;42.658;23.320;2023-05-20T05:57:00;36;33;
77699;PMS5003;66867;42.658;23.320;2023-05-20T05:58:00;31;29;
77699;PMS5003;66867;42.658;23.320;2023-05-20T05:59:00;33;32;
77699;PMS5003;66867;42.658;23.320;2023-05-20T06:00:00;33;31;
77699;PMS5003;66867;42.658;23.320;2023-05-20T06:01:00;37;33;
77699;PMS5003;66867;42.658;23.320;2023-05-20T06:02:00;36;32;
77699;PMS5003;66867;42.658;23.320;2023-05-20T06:03:00;35;32;
77699;PMS5003;66867;42.658;23.320;2023-05-20T06:04:00;33;31;
77699;PMS5003;66867;42.658;23.320;2023-05-20T06:05:01;33;31;
77699;PMS5003;66867;42.658;23.320;2023-05-20T06:06:00;30;30;
77699;PMS5003;66867;42.658;23.320;2023-05-20T06:07:00;30;28;
77699;PMS5003;66867;42.658;23.320;2023-05-20T06:08:00;28;28;
77699;PMS5003;66867;42.658;23.320;2023-05-20T06:09:00;28;26;
77699;PMS5003;66867;42.658;23.320;2023-05-20T06:10:00;30;26;
77699;PMS5003;66867;42.658;23.320;2023-05-20T06:11:00;28;27;
77699;PMS5003;66867;42.658;23.320;2023-05-20T06:12:00;29;27;
77699;PMS5003;66867;42.658;23.320;2023-05-20T06:13:00;27;27;
77699;PMS5003;66867;42.658;23.320;2023-05-20T06:15:00;29;28;
77699;PMS5003;66867;42.658;23.320;2023-05-20T06:16:00;30;29;
77699;PMS5003;66867;42.658;23.320;2023-05-20T06:17:01;27;27;
77699;PMS5003;66867;42.658;23.320;2023-05-20T06:18:00;30;29;
77699;PMS5003;66867;42.658;23.320;2023-05-20T06:19:00;25;25;
77699;PMS5003;66867;42.658;23.320;2023-05-20T06:20:00;29;27;
77699;PMS5003;66867;42.658;23.320;2023-05-20T06:21:01;29;26;
77699;PMS5003;66867;42.658;23.320;2023-05-20T06:22:00;29;29;
77699;PMS5003;66867;42.658;23.320;2023-05-20T06:23:00;33;31;
77699;PMS5003;66867;42.658;23.320;2023-05-20T06:24:00;36;33;
77699;PMS5003;66867;42.658;23.320;2023-05-20T06:25:00;31;30;
77699;PMS5003;66867;42.658;23.320;2023-05-20T06:26:00;29;29;
77699;PMS5003;66867;42.658;23.320;2023-05-20T06:27:00;26;26;
77699;PMS5003;66867;42.658;23.320;2023-05-20T06:28:00;25;25;
77699;PMS5003;66867;42.658;23.320;2023-05-20T06:29:01;27;27;
77699;PMS5003;66867;42.658;23.320;2023-05-20T06:30:00;26;24;
77699;PMS5003;66867;42.658;23.320;2023-05-20T06:31:00;25;25;
77699;PMS5003;66867;42.658;23.320;2023-05-20T06:32:00;26;26;